Terminal Aerodrome Forecast
Issued by NWS Charleston, WV

Current Version | Previous Version | Text Only | Print | Product List | Glossary Off
Versions: 1 2 3 4 5 6 7 8 9 10 11 12 13 14 15 16 17 18 19 20 21 22 23 24 25 26 27 28

357
FTUS41 KRLX 210539
TAFPKB
TAF
KPKB 210539Z 2106/2206 00000KT P6SM SCT250
     FM210900 00000KT 4SM BR SCT250
     FM211300 00000KT P6SM SCT250
     FM211600 09005KT P6SM SCT040
     FM212000 13004KT P6SM VCTS SCT050CB
     FM220100 00000KT P6SM BKN250=

USA.gov is the U.S. government's official web portal to all federal, state and local government web resources and services.